sensor_id;sensor_type;location;lat;lon;timestamp;temperature;humidity
62259;DHT22;48241;48.824;10.102;2023-04-30T00:01:41;13.80;91.30
62259;DHT22;48241;48.824;10.102;2023-04-30T00:04:07;14.00;91.40
62259;DHT22;48241;48.824;10.102;2023-04-30T00:06:32;14.60;90.80
62259;DHT22;48241;48.824;10.102;2023-04-30T00:08:58;14.50;91.10
62259;DHT22;48241;48.824;10.102;2023-04-30T00:11:24;13.60;90.70
62259;DHT22;48241;48.824;10.102;2023-04-30T00:13:50;13.90;91.70
62259;DHT22;48241;48.824;10.102;2023-04-30T00:16:16;14.30;92.00
62259;DHT22;48241;48.824;10.102;2023-04-30T00:18:42;14.10;91.10
62259;DHT22;48241;48.824;10.102;2023-04-30T00:21:08;13.80;90.90
62259;DHT22;48241;48.824;10.102;2023-04-30T00:23:34;14.30;92.60
62259;DHT22;48241;48.824;10.102;2023-04-30T00:25:59;14.10;92.90
62259;DHT22;48241;48.824;10.102;2023-04-30T00:28:25;13.20;93.20
62259;DHT22;48241;48.824;10.102;2023-04-30T00:30:51;14.80;93.20
62259;DHT22;48241;48.824;10.102;2023-04-30T00:33:17;13.80;93.30
62259;DHT22;48241;48.824;10.102;2023-04-30T00:35:42;13.00;92.90
62259;DHT22;48241;48.824;10.102;2023-04-30T00:38:08;13.10;93.10
62259;DHT22;48241;48.824;10.102;2023-04-30T00:40:34;12.80;91.10
62259;DHT22;48241;48.824;10.102;2023-04-30T00:43:00;13.10;91.60
62259;DHT22;48241;48.824;10.102;2023-04-30T00:45:26;13.00;91.70
62259;DHT22;48241;48.824;10.102;2023-04-30T00:47:51;13.00;92.30
62259;DHT22;48241;48.824;10.102;2023-04-30T00:50:17;13.10;92.50
62259;DHT22;48241;48.824;10.102;2023-04-30T00:52:43;13.00;92.90
62259;DHT22;48241;48.824;10.102;2023-04-30T00:55:12;13.00;93.40
62259;DHT22;48241;48.824;10.102;2023-04-30T00:57:38;13.10;93.30
62259;DHT22;48241;48.824;10.102;2023-04-30T01:00:05;12.90;93.30
62259;DHT22;48241;48.824;10.102;2023-04-30T01:02:34;13.00;93.40
62259;DHT22;48241;48.824;10.102;2023-04-30T01:05:01;13.00;93.60
62259;DHT22;48241;48.824;10.102;2023-04-30T01:07:27;13.10;93.30
62259;DHT22;48241;48.824;10.102;2023-04-30T01:09:53;12.90;93.40
62259;DHT22;48241;48.824;10.102;2023-04-30T01:12:25;13.00;92.70
62259;DHT22;48241;48.824;10.102;2023-04-30T01:15:13;13.10;92.50
62259;DHT22;48241;48.824;10.102;2023-04-30T01:17:55;12.60;90.50
62259;DHT22;48241;48.824;10.102;2023-04-30T01:20:25;12.10;90.70
62259;DHT22;48241;48.824;10.102;2023-04-30T01:26:14;11.80;92.10
62259;DHT22;48241;48.824;10.102;2023-04-30T01:28:42;11.90;91.50
62259;DHT22;48241;48.824;10.102;2023-04-30T01:31:17;12.10;91.40
62259;DHT22;48241;48.824;10.102;2023-04-30T01:33:43;12.20;91.00
62259;DHT22;48241;48.824;10.102;2023-04-30T01:39:23;12.40;91.70
62259;DHT22;48241;48.824;10.102;2023-04-30T01:42:19;12.70;90.50
62259;DHT22;48241;48.824;10.102;2023-04-30T01:45:11;12.70;90.50
62259;DHT22;48241;48.824;10.102;2023-04-30T01:47:47;12.70;90.30
62259;DHT22;48241;48.824;10.102;2023-04-30T01:52:52;12.40;91.80
62259;DHT22;48241;48.824;10.102;2023-04-30T01:55:34;12.70;91.90
62259;DHT22;48241;48.824;10.102;2023-04-30T01:58:06;12.60;92.00
62259;DHT22;48241;48.824;10.102;2023-04-30T02:00:33;12.60;92.30
62259;DHT22;48241;48.824;10.102;2023-04-30T02:02:59;12.60;91.90
62259;DHT22;48241;48.824;10.102;2023-04-30T02:05:25;12.60;91.70
62259;DHT22;48241;48.824;10.102;2023-04-30T02:07:51;13.10;91.90
62259;DHT22;48241;48.824;10.102;2023-04-30T02:10:19;12.50;92.10
62259;DHT22;48241;48.824;10.102;2023-04-30T02:12:45;12.40;92.70
62259;DHT22;48241;48.824;10.102;2023-04-30T02:15:11;12.90;92.80
62259;DHT22;48241;48.824;10.102;2023-04-30T02:17:37;12.60;91.80
62259;DHT22;48241;48.824;10.102;2023-04-30T02:20:02;12.40;92.10
62259;DHT22;48241;48.824;10.102;2023-04-30T02:22:29;12.50;91.30
62259;DHT22;48241;48.824;10.102;2023-04-30T02:24:54;12.70;91.10
62259;DHT22;48241;48.824;10.102;2023-04-30T02:27:21;12.90;91.40
62259;DHT22;48241;48.824;10.102;2023-04-30T02:29:47;12.50;91.50
62259;DHT22;48241;48.824;10.102;2023-04-30T02:32:13;12.60;91.10
62259;DHT22;48241;48.824;10.102;2023-04-30T02:34:39;12.40;91.50
62259;DHT22;48241;48.824;10.102;2023-04-30T02:37:05;12.50;91.20
62259;DHT22;48241;48.824;10.102;2023-04-30T02:39:31;12.40;90.90
62259;DHT22;48241;48.824;10.102;2023-04-30T02:41:57;12.30;91.50
62259;DHT22;48241;48.824;10.102;2023-04-30T02:44:23;12.30;91.40
62259;DHT22;48241;48.824;10.102;2023-04-30T02:46:48;12.00;91.50
62259;DHT22;48241;48.824;10.102;2023-04-30T02:49:14;12.40;91.90
62259;DHT22;48241;48.824;10.102;2023-04-30T02:51:39;12.10;91.40
62259;DHT22;48241;48.824;10.102;2023-04-30T02:54:05;11.90;92.00
62259;DHT22;48241;48.824;10.102;2023-04-30T02:56:30;12.00;92.60
62259;DHT22;48241;48.824;10.102;2023-04-30T02:58:56;12.30;92.30
62259;DHT22;48241;48.824;10.102;2023-04-30T03:01:22;11.90;92.40
62259;DHT22;48241;48.824;10.102;2023-04-30T03:03:47;12.30;92.40
62259;DHT22;48241;48.824;10.102;2023-04-30T03:06:13;12.40;92.50
62259;DHT22;48241;48.824;10.102;2023-04-30T03:08:38;12.50;92.40
62259;DHT22;48241;48.824;10.102;2023-04-30T03:11:04;12.60;92.50
62259;DHT22;48241;48.824;10.102;2023-04-30T03:13:29;12.20;92.00
62259;DHT22;48241;48.824;10.102;2023-04-30T03:15:59;11.90;92.90
62259;DHT22;48241;48.824;10.102;2023-04-30T03:18:28;12.30;93.80
62259;DHT22;48241;48.824;10.102;2023-04-30T03:20:55;12.20;93.10
62259;DHT22;48241;48.824;10.102;2023-04-30T03:23:20;12.00;93.20
62259;DHT22;48241;48.824;10.102;2023-04-30T03:25:46;12.30;93.10
62259;DHT22;48241;48.824;10.102;2023-04-30T03:28:12;11.70;93.20
62259;DHT22;48241;48.824;10.102;2023-04-30T03:30:38;11.90;92.70
62259;DHT22;48241;48.824;10.102;2023-04-30T03:33:03;12.00;92.70
62259;DHT22;48241;48.824;10.102;2023-04-30T03:35:32;11.70;93.10
62259;DHT22;48241;48.824;10.102;2023-04-30T03:38:01;12.10;93.20
62259;DHT22;48241;48.824;10.102;2023-04-30T03:40:27;11.90;93.10
62259;DHT22;48241;48.824;10.102;2023-04-30T03:42:53;11.80;93.70
62259;DHT22;48241;48.824;10.102;2023-04-30T03:45:18;11.10;94.30
62259;DHT22;48241;48.824;10.102;2023-04-30T03:47:44;11.80;94.60
62259;DHT22;48241;48.824;10.102;2023-04-30T03:50:10;11.80;94.40
62259;DHT22;48241;48.824;10.102;2023-04-30T03:52:35;11.90;93.90
62259;DHT22;48241;48.824;10.102;2023-04-30T03:55:02;12.10;93.40
62259;DHT22;48241;48.824;10.102;2023-04-30T03:57:28;11.80;93.20
62259;DHT22;48241;48.824;10.102;2023-04-30T03:59:53;12.00;93.40
62259;DHT22;48241;48.824;10.102;2023-04-30T04:02:19;11.90;94.20
62259;DHT22;48241;48.824;10.102;2023-04-30T04:04:46;11.40;93.60
62259;DHT22;48241;48.824;10.102;2023-04-30T04:07:11;11.90;93.80
62259;DHT22;48241;48.824;10.102;2023-04-30T04:09:37;11.80;93.70
62259;DHT22;48241;48.824;10.102;2023-04-30T04:12:03;11.70;93.70
62259;DHT22;48241;48.824;10.102;2023-04-30T04:14:29;11.60;93.40
62259;DHT22;48241;48.824;10.102;2023-04-30T04:16:55;11.50;93.50
62259;DHT22;48241;48.824;10.102;2023-04-30T04:19:22;11.30;93.30
62259;DHT22;48241;48.824;10.102;2023-04-30T04:21:48;11.70;94.30
62259;DHT22;48241;48.824;10.102;2023-04-30T04:24:13;11.10;94.10
62259;DHT22;48241;48.824;10.102;2023-04-30T04:26:39;11.40;94.00
62259;DHT22;48241;48.824;10.102;2023-04-30T04:29:05;11.50;93.20
62259;DHT22;48241;48.824;10.102;2023-04-30T04:31:34;11.70;92.90
62259;DHT22;48241;48.824;10.102;2023-04-30T04:34:01;12.10;92.90
62259;DHT22;48241;48.824;10.102;2023-04-30T04:36:27;11.60;92.90
62259;DHT22;48241;48.824;10.102;2023-04-30T04:38:53;11.30;93.60
62259;DHT22;48241;48.824;10.102;2023-04-30T04:41:20;11.80;93.10
62259;DHT22;48241;48.824;10.102;2023-04-30T04:43:46;11.60;92.90
62259;DHT22;48241;48.824;10.102;2023-04-30T04:46:11;11.50;93.30
62259;DHT22;48241;48.824;10.102;2023-04-30T04:48:41;11.60;93.30
62259;DHT22;48241;48.824;10.102;2023-04-30T04:51:06;11.70;93.30
62259;DHT22;48241;48.824;10.102;2023-04-30T04:53:32;11.90;93.00
62259;DHT22;48241;48.824;10.102;2023-04-30T04:55:57;12.40;91.50
62259;DHT22;48241;48.824;10.102;2023-04-30T04:58:23;12.00;91.80
62259;DHT22;48241;48.824;10.102;2023-04-30T05:00:48;11.90;92.20
62259;DHT22;48241;48.824;10.102;2023-04-30T05:03:14;11.30;93.40
62259;DHT22;48241;48.824;10.102;2023-04-30T05:05:39;11.40;93.40
62259;DHT22;48241;48.824;10.102;2023-04-30T05:08:05;11.00;94.50
62259;DHT22;48241;48.824;10.102;2023-04-30T05:10:31;11.40;93.70
62259;DHT22;48241;48.824;10.102;2023-04-30T05:12:56;12.00;93.30
62259;DHT22;48241;48.824;10.102;2023-04-30T05:15:22;12.40;91.80
62259;DHT22;48241;48.824;10.102;2023-04-30T05:17:48;12.60;91.70
62259;DHT22;48241;48.824;10.102;2023-04-30T05:20:13;12.00;92.50
62259;DHT22;48241;48.824;10.102;2023-04-30T05:22:39;11.70;93.20
62259;DHT22;48241;48.824;10.102;2023-04-30T05:25:05;11.60;93.30
62259;DHT22;48241;48.824;10.102;2023-04-30T05:27:30;11.90;92.50
62259;DHT22;48241;48.824;10.102;2023-04-30T05:29:56;11.90;92.10
62259;DHT22;48241;48.824;10.102;2023-04-30T05:32:22;12.60;92.60
62259;DHT22;48241;48.824;10.102;2023-04-30T05:34:48;12.10;91.60
62259;DHT22;48241;48.824;10.102;2023-04-30T05:37:14;12.60;91.30
62259;DHT22;48241;48.824;10.102;2023-04-30T05:39:41;12.60;90.60
62259;DHT22;48241;48.824;10.102;2023-04-30T05:42:06;12.40;91.40
62259;DHT22;48241;48.824;10.102;2023-04-30T05:44:32;12.50;90.90
62259;DHT22;48241;48.824;10.102;2023-04-30T05:46:57;12.90;91.20
62259;DHT22;48241;48.824;10.102;2023-04-30T05:49:23;13.20;90.20
62259;DHT22;48241;48.824;10.102;2023-04-30T05:51:49;13.20;89.10
62259;DHT22;48241;48.824;10.102;2023-04-30T05:54:15;13.00;90.30
62259;DHT22;48241;48.824;10.102;2023-04-30T05:56:40;13.10;90.20
62259;DHT22;48241;48.824;10.102;2023-04-30T05:59:06;13.20;90.30
62259;DHT22;48241;48.824;10.102;2023-04-30T06:01:31;13.70;88.00
62259;DHT22;48241;48.824;10.102;2023-04-30T06:03:58;13.60;87.00
62259;DHT22;48241;48.824;10.102;2023-04-30T06:06:25;13.70;86.80
62259;DHT22;48241;48.824;10.102;2023-04-30T06:08:52;13.70;86.30
62259;DHT22;48241;48.824;10.102;2023-04-30T06:11:17;14.30;84.30
62259;DHT22;48241;48.824;10.102;2023-04-30T06:13:47;14.80;83.30
62259;DHT22;48241;48.824;10.102;2023-04-30T06:16:13;13.70;84.60
62259;DHT22;48241;48.824;10.102;2023-04-30T06:18:38;13.90;87.00
62259;DHT22;48241;48.824;10.102;2023-04-30T06:21:04;15.50;80.60
62259;DHT22;48241;48.824;10.102;2023-04-30T06:23:30;16.20;77.20
62259;DHT22;48241;48.824;10.102;2023-04-30T06:25:56;16.50;74.00
62259;DHT22;48241;48.824;10.102;2023-04-30T06:28:21;16.60;74.60
62259;DHT22;48241;48.824;10.102;2023-04-30T06:30:47;17.00;72.10
62259;DHT22;48241;48.824;10.102;2023-04-30T06:33:12;17.00;72.70
62259;DHT22;48241;48.824;10.102;2023-04-30T06:35:38;16.70;72.80
62259;DHT22;48241;48.824;10.102;2023-04-30T06:38:04;17.00;73.00
62259;DHT22;48241;48.824;10.102;2023-04-30T06:40:30;16.50;72.90
62259;DHT22;48241;48.824;10.102;2023-04-30T06:42:56;17.30;71.60
62259;DHT22;48241;48.824;10.102;2023-04-30T06:45:22;18.50;67.90
62259;DHT22;48241;48.824;10.102;2023-04-30T06:47:47;19.10;64.50
62259;DHT22;48241;48.824;10.102;2023-04-30T06:50:13;19.50;63.50
62259;DHT22;48241;48.824;10.102;2023-04-30T06:52:40;19.70;63.10
62259;DHT22;48241;48.824;10.102;2023-04-30T06:55:05;20.90;60.90
62259;DHT22;48241;48.824;10.102;2023-04-30T06:57:32;22.60;57.50
62259;DHT22;48241;48.824;10.102;2023-04-30T06:59:58;22.80;54.30
62259;DHT22;48241;48.824;10.102;2023-04-30T07:02:24;22.40;53.90
62259;DHT22;48241;48.824;10.102;2023-04-30T07:04:49;23.00;52.80
62259;DHT22;48241;48.824;10.102;2023-04-30T07:07:15;23.20;51.40
62259;DHT22;48241;48.824;10.102;2023-04-30T07:09:40;23.30;50.50
62259;DHT22;48241;48.824;10.102;2023-04-30T07:12:06;22.90;50.90
62259;DHT22;48241;48.824;10.102;2023-04-30T07:14:32;23.50;50.90
62259;DHT22;48241;48.824;10.102;2023-04-30T07:16:57;24.30;48.70
62259;DHT22;48241;48.824;10.102;2023-04-30T07:19:23;23.70;48.70
62259;DHT22;48241;48.824;10.102;2023-04-30T07:21:51;23.50;49.10
62259;DHT22;48241;48.824;10.102;2023-04-30T07:24:16;24.30;49.00
62259;DHT22;48241;48.824;10.102;2023-04-30T07:26:42;25.30;47.70
62259;DHT22;48241;48.824;10.102;2023-04-30T07:29:07;25.90;45.30
62259;DHT22;48241;48.824;10.102;2023-04-30T07:31:33;24.60;45.00
62259;DHT22;48241;48.824;10.102;2023-04-30T07:33:59;24.30;46.60
62259;DHT22;48241;48.824;10.102;2023-04-30T07:36:24;23.90;46.80
62259;DHT22;48241;48.824;10.102;2023-04-30T07:38:51;24.50;46.30
62259;DHT22;48241;48.824;10.102;2023-04-30T07:41:17;25.20;45.40
62259;DHT22;48241;48.824;10.102;2023-04-30T07:43:42;24.30;45.90
62259;DHT22;48241;48.824;10.102;2023-04-30T07:46:08;24.10;45.50
62259;DHT22;48241;48.824;10.102;2023-04-30T07:48:34;24.30;45.80
62259;DHT22;48241;48.824;10.102;2023-04-30T07:51:00;25.00;44.70
62259;DHT22;48241;48.824;10.102;2023-04-30T07:53:25;24.10;44.20
62259;DHT22;48241;48.824;10.102;2023-04-30T07:55:51;23.80;45.30
62259;DHT22;48241;48.824;10.102;2023-04-30T07:58:16;24.40;45.30
62259;DHT22;48241;48.824;10.102;2023-04-30T08:00:42;24.60;44.60
62259;DHT22;48241;48.824;10.102;2023-04-30T08:03:07;25.30;44.00
62259;DHT22;48241;48.824;10.102;2023-04-30T08:05:33;24.80;43.10
62259;DHT22;48241;48.824;10.102;2023-04-30T08:07:59;24.40;43.60
62259;DHT22;48241;48.824;10.102;2023-04-30T08:10:25;24.40;42.70
62259;DHT22;48241;48.824;10.102;2023-04-30T08:12:51;23.50;44.10
62259;DHT22;48241;48.824;10.102;2023-04-30T08:15:17;23.50;44.70
62259;DHT22;48241;48.824;10.102;2023-04-30T08:17:49;24.10;44.20
62259;DHT22;48241;48.824;10.102;2023-04-30T08:20:15;24.80;43.60
62259;DHT22;48241;48.824;10.102;2023-04-30T08:22:42;25.20;42.30
62259;DHT22;48241;48.824;10.102;2023-04-30T08:25:10;24.80;41.80
62259;DHT22;48241;48.824;10.102;2023-04-30T08:27:36;24.70;42.50
62259;DHT22;48241;48.824;10.102;2023-04-30T08:30:02;24.60;42.70
62259;DHT22;48241;48.824;10.102;2023-04-30T08:32:28;24.50;41.10
62259;DHT22;48241;48.824;10.102;2023-04-30T08:34:54;25.10;41.20
62259;DHT22;48241;48.824;10.102;2023-04-30T08:37:19;24.20;41.20
62259;DHT22;48241;48.824;10.102;2023-04-30T08:39:45;21.60;45.10
62259;DHT22;48241;48.824;10.102;2023-04-30T08:42:13;18.00;51.10
62259;DHT22;48241;48.824;10.102;2023-04-30T08:44:40;18.10;52.40
62259;DHT22;48241;48.824;10.102;2023-04-30T08:47:10;17.80;52.00
62259;DHT22;48241;48.824;10.102;2023-04-30T08:49:40;17.90;51.80
62259;DHT22;48241;48.824;10.102;2023-04-30T08:52:06;17.70;52.70
62259;DHT22;48241;48.824;10.102;2023-04-30T08:54:33;17.60;52.80
62259;DHT22;48241;48.824;10.102;2023-04-30T08:56:59;17.50;53.40
62259;DHT22;48241;48.824;10.102;2023-04-30T08:59:25;17.60;53.40
62259;DHT22;48241;48.824;10.102;2023-04-30T09:01:51;17.80;53.30
62259;DHT22;48241;48.824;10.102;2023-04-30T09:04:17;17.70;50.40
62259;DHT22;48241;48.824;10.102;2023-04-30T09:06:43;17.10;51.10
62259;DHT22;48241;48.824;10.102;2023-04-30T09:09:11;16.70;52.30
62259;DHT22;48241;48.824;10.102;2023-04-30T09:11:37;16.20;54.50
62259;DHT22;48241;48.824;10.102;2023-04-30T09:14:03;16.30;56.20
62259;DHT22;48241;48.824;10.102;2023-04-30T09:16:49;16.60;55.30
62259;DHT22;48241;48.824;10.102;2023-04-30T09:19:22;16.90;54.00
62259;DHT22;48241;48.824;10.102;2023-04-30T09:21:48;17.10;54.40
62259;DHT22;48241;48.824;10.102;2023-04-30T09:24:14;17.10;53.60
62259;DHT22;48241;48.824;10.102;2023-04-30T09:26:40;16.60;54.10
62259;DHT22;48241;48.824;10.102;2023-04-30T09:29:05;16.50;55.70
62259;DHT22;48241;48.824;10.102;2023-04-30T09:31:35;15.90;56.60
62259;DHT22;48241;48.824;10.102;2023-04-30T09:34:01;15.80;56.60
62259;DHT22;48241;48.824;10.102;2023-04-30T09:36:27;16.30;54.40
62259;DHT22;48241;48.824;10.102;2023-04-30T09:38:54;17.20;52.00
62259;DHT22;48241;48.824;10.102;2023-04-30T09:41:25;17.70;52.20
62259;DHT22;48241;48.824;10.102;2023-04-30T09:43:55;17.20;52.30
62259;DHT22;48241;48.824;10.102;2023-04-30T09:46:28;17.80;51.80
62259;DHT22;48241;48.824;10.102;2023-04-30T09:49:03;17.70;51.60
62259;DHT22;48241;48.824;10.102;2023-04-30T09:51:28;17.20;53.60
62259;DHT22;48241;48.824;10.102;2023-04-30T09:53:54;16.90;54.60
62259;DHT22;48241;48.824;10.102;2023-04-30T09:56:22;17.10;55.20
62259;DHT22;48241;48.824;10.102;2023-04-30T09:58:55;17.50;53.50
62259;DHT22;48241;48.824;10.102;2023-04-30T10:01:24;17.50;51.80
62259;DHT22;48241;48.824;10.102;2023-04-30T10:03:51;17.20;52.70
62259;DHT22;48241;48.824;10.102;2023-04-30T10:06:18;18.10;52.80
62259;DHT22;48241;48.824;10.102;2023-04-30T10:08:52;18.90;51.10
62259;DHT22;48241;48.824;10.102;2023-04-30T10:11:21;19.20;50.80
62259;DHT22;48241;48.824;10.102;2023-04-30T10:14:08;18.70;52.40
62259;DHT22;48241;48.824;10.102;2023-04-30T10:19:21;17.70;54.70
62259;DHT22;48241;48.824;10.102;2023-04-30T10:21:48;17.40;56.00
62259;DHT22;48241;48.824;10.102;2023-04-30T10:24:15;17.50;56.10
62259;DHT22;48241;48.824;10.102;2023-04-30T10:26:44;17.60;55.70
62259;DHT22;48241;48.824;10.102;2023-04-30T10:29:12;17.50;56.40
62259;DHT22;48241;48.824;10.102;2023-04-30T10:31:38;17.60;56.80
62259;DHT22;48241;48.824;10.102;2023-04-30T10:36:47;18.50;54.90
62259;DHT22;48241;48.824;10.102;2023-04-30T10:39:14;18.80;53.90
62259;DHT22;48241;48.824;10.102;2023-04-30T10:41:46;19.00;53.40
62259;DHT22;48241;48.824;10.102;2023-04-30T10:44:13;19.20;52.70
62259;DHT22;48241;48.824;10.102;2023-04-30T10:46:39;19.60;51.40
62259;DHT22;48241;48.824;10.102;2023-04-30T10:49:05;19.80;51.30
62259;DHT22;48241;48.824;10.102;2023-04-30T10:51:47;19.00;52.80
62259;DHT22;48241;48.824;10.102;2023-04-30T10:54:15;18.60;53.00
62259;DHT22;48241;48.824;10.102;2023-04-30T10:56:43;18.60;53.50
62259;DHT22;48241;48.824;10.102;2023-04-30T10:59:10;18.40;52.10
62259;DHT22;48241;48.824;10.102;2023-04-30T11:01:55;17.80;54.10
62259;DHT22;48241;48.824;10.102;2023-04-30T11:04:22;17.40;55.00
62259;DHT22;48241;48.824;10.102;2023-04-30T11:09:41;17.60;53.70
62259;DHT22;48241;48.824;10.102;2023-04-30T11:12:14;17.00;55.70
62259;DHT22;48241;48.824;10.102;2023-04-30T11:14:42;16.60;56.50
62259;DHT22;48241;48.824;10.102;2023-04-30T11:17:20;17.20;55.90
62259;DHT22;48241;48.824;10.102;2023-04-30T11:19:51;17.80;54.40
62259;DHT22;48241;48.824;10.102;2023-04-30T11:22:22;18.20;52.60
62259;DHT22;48241;48.824;10.102;2023-04-30T11:27:33;18.10;52.90
62259;DHT22;48241;48.824;10.102;2023-04-30T11:30:00;18.30;52.50
62259;DHT22;48241;48.824;10.102;2023-04-30T11:32:31;18.30;52.60
62259;DHT22;48241;48.824;10.102;2023-04-30T11:34:59;18.60;53.10
62259;DHT22;48241;48.824;10.102;2023-04-30T11:37:29;19.00;51.30
62259;DHT22;48241;48.824;10.102;2023-04-30T11:39:56;18.60;52.00
62259;DHT22;48241;48.824;10.102;2023-04-30T11:42:24;18.60;51.80
62259;DHT22;48241;48.824;10.102;2023-04-30T11:44:49;18.60;51.90
62259;DHT22;48241;48.824;10.102;2023-04-30T11:47:15;18.40;51.30
62259;DHT22;48241;48.824;10.102;2023-04-30T11:49:41;18.30;51.00
62259;DHT22;48241;48.824;10.102;2023-04-30T11:52:07;17.80;52.20
62259;DHT22;48241;48.824;10.102;2023-04-30T11:54:37;18.10;52.00
62259;DHT22;48241;48.824;10.102;2023-04-30T11:57:04;17.20;54.80
62259;DHT22;48241;48.824;10.102;2023-04-30T11:59:31;17.40;53.60
62259;DHT22;48241;48.824;10.102;2023-04-30T12:01:57;17.70;52.20
62259;DHT22;48241;48.824;10.102;2023-04-30T12:04:23;18.20;48.70
62259;DHT22;48241;48.824;10.102;2023-04-30T12:06:48;17.80;48.80
62259;DHT22;48241;48.824;10.102;2023-04-30T12:09:14;18.20;50.40
62259;DHT22;48241;48.824;10.102;2023-04-30T12:11:40;17.80;50.70
62259;DHT22;48241;48.824;10.102;2023-04-30T12:14:08;18.60;48.70
62259;DHT22;48241;48.824;10.102;2023-04-30T12:19:10;18.00;50.80
62259;DHT22;48241;48.824;10.102;2023-04-30T12:21:36;18.10;51.60
62259;DHT22;48241;48.824;10.102;2023-04-30T12:24:03;18.10;52.40
62259;DHT22;48241;48.824;10.102;2023-04-30T12:26:38;17.90;52.00
62259;DHT22;48241;48.824;10.102;2023-04-30T12:29:09;17.80;52.20
62259;DHT22;48241;48.824;10.102;2023-04-30T12:31:36;17.60;53.00
62259;DHT22;48241;48.824;10.102;2023-04-30T12:34:07;17.50;54.80
62259;DHT22;48241;48.824;10.102;2023-04-30T12:36:33;18.10;52.40
62259;DHT22;48241;48.824;10.102;2023-04-30T12:39:14;18.50;51.70
62259;DHT22;48241;48.824;10.102;2023-04-30T12:41:41;18.50;52.10
62259;DHT22;48241;48.824;10.102;2023-04-30T12:46:39;17.90;52.00
62259;DHT22;48241;48.824;10.102;2023-04-30T12:52:12;18.50;52.00
62259;DHT22;48241;48.824;10.102;2023-04-30T12:54:38;17.10;52.00
62259;DHT22;48241;48.824;10.102;2023-04-30T12:57:05;17.10;53.00
62259;DHT22;48241;48.824;10.102;2023-04-30T12:59:37;17.80;53.60
62259;DHT22;48241;48.824;10.102;2023-04-30T13:02:13;17.50;53.40
62259;DHT22;48241;48.824;10.102;2023-04-30T13:04:40;17.70;51.70
62259;DHT22;48241;48.824;10.102;2023-04-30T13:07:06;17.50;52.90
62259;DHT22;48241;48.824;10.102;2023-04-30T13:09:33;17.90;52.90
62259;DHT22;48241;48.824;10.102;2023-04-30T13:11:59;18.00;51.50
62259;DHT22;48241;48.824;10.102;2023-04-30T13:14:25;18.30;51.10
62259;DHT22;48241;48.824;10.102;2023-04-30T13:16:51;18.50;49.90
62259;DHT22;48241;48.824;10.102;2023-04-30T13:19:18;18.30;50.00
62259;DHT22;48241;48.824;10.102;2023-04-30T13:21:43;18.40;49.70
62259;DHT22;48241;48.824;10.102;2023-04-30T13:24:09;18.30;50.20
62259;DHT22;48241;48.824;10.102;2023-04-30T13:26:35;18.30;50.90
62259;DHT22;48241;48.824;10.102;2023-04-30T13:29:00;18.80;50.70
62259;DHT22;48241;48.824;10.102;2023-04-30T13:31:26;17.80;51.70
62259;DHT22;48241;48.824;10.102;2023-04-30T13:33:52;17.60;52.30
62259;DHT22;48241;48.824;10.102;2023-04-30T13:36:19;17.30;53.60
62259;DHT22;48241;48.824;10.102;2023-04-30T13:38:45;17.50;53.40
62259;DHT22;48241;48.824;10.102;2023-04-30T13:41:11;18.00;52.90
62259;DHT22;48241;48.824;10.102;2023-04-30T13:43:37;18.80;52.40
62259;DHT22;48241;48.824;10.102;2023-04-30T13:46:03;19.10;52.30
62259;DHT22;48241;48.824;10.102;2023-04-30T13:48:29;18.80;51.70
62259;DHT22;48241;48.824;10.102;2023-04-30T13:50:55;18.80;51.00
62259;DHT22;48241;48.824;10.102;2023-04-30T13:53:20;19.70;51.80
62259;DHT22;48241;48.824;10.102;2023-04-30T13:55:47;19.20;51.70
62259;DHT22;48241;48.824;10.102;2023-04-30T13:58:12;19.80;51.40
62259;DHT22;48241;48.824;10.102;2023-04-30T14:00:38;19.60;49.30
62259;DHT22;48241;48.824;10.102;2023-04-30T14:03:04;18.80;51.80
62259;DHT22;48241;48.824;10.102;2023-04-30T14:05:30;18.30;50.70
62259;DHT22;48241;48.824;10.102;2023-04-30T14:07:56;18.10;51.10
62259;DHT22;48241;48.824;10.102;2023-04-30T14:10:21;18.50;49.30
62259;DHT22;48241;48.824;10.102;2023-04-30T14:12:47;18.60;51.40
62259;DHT22;48241;48.824;10.102;2023-04-30T14:15:14;18.60;50.70
62259;DHT22;48241;48.824;10.102;2023-04-30T14:17:40;18.80;50.50
62259;DHT22;48241;48.824;10.102;2023-04-30T14:20:06;19.10;50.90
62259;DHT22;48241;48.824;10.102;2023-04-30T14:22:32;18.70;50.70
62259;DHT22;48241;48.824;10.102;2023-04-30T14:25:00;18.40;51.20
62259;DHT22;48241;48.824;10.102;2023-04-30T14:27:25;18.10;52.60
62259;DHT22;48241;48.824;10.102;2023-04-30T14:29:51;17.90;52.60
62259;DHT22;48241;48.824;10.102;2023-04-30T14:32:17;17.50;54.00
62259;DHT22;48241;48.824;10.102;2023-04-30T14:34:42;17.30;53.10
62259;DHT22;48241;48.824;10.102;2023-04-30T14:37:09;17.80;53.40
62259;DHT22;48241;48.824;10.102;2023-04-30T14:39:34;17.50;51.80
62259;DHT22;48241;48.824;10.102;2023-04-30T14:42:00;17.90;52.30
62259;DHT22;48241;48.824;10.102;2023-04-30T14:44:26;18.10;51.00
62259;DHT22;48241;48.824;10.102;2023-04-30T14:46:51;17.60;50.90
62259;DHT22;48241;48.824;10.102;2023-04-30T14:49:17;17.60;51.80
62259;DHT22;48241;48.824;10.102;2023-04-30T14:51:43;18.00;51.10
62259;DHT22;48241;48.824;10.102;2023-04-30T14:54:08;18.10;50.60
62259;DHT22;48241;48.824;10.102;2023-04-30T14:56:34;18.10;49.30
62259;DHT22;48241;48.824;10.102;2023-04-30T14:59:00;18.00;49.80
62259;DHT22;48241;48.824;10.102;2023-04-30T15:01:26;17.20;50.40
62259;DHT22;48241;48.824;10.102;2023-04-30T15:03:51;18.20;50.60
62259;DHT22;48241;48.824;10.102;2023-04-30T15:06:17;17.50;51.40
62259;DHT22;48241;48.824;10.102;2023-04-30T15:08:43;17.40;50.50
62259;DHT22;48241;48.824;10.102;2023-04-30T15:11:09;17.60;50.80
62259;DHT22;48241;48.824;10.102;2023-04-30T15:13:36;17.70;50.50
62259;DHT22;48241;48.824;10.102;2023-04-30T15:16:04;17.60;50.60
62259;DHT22;48241;48.824;10.102;2023-04-30T15:18:30;17.20;50.80
62259;DHT22;48241;48.824;10.102;2023-04-30T15:20:56;17.70;51.30
62259;DHT22;48241;48.824;10.102;2023-04-30T15:23:22;17.50;50.50
62259;DHT22;48241;48.824;10.102;2023-04-30T15:25:47;17.30;51.20
62259;DHT22;48241;48.824;10.102;2023-04-30T15:28:13;17.70;51.90
62259;DHT22;48241;48.824;10.102;2023-04-30T15:30:40;17.50;51.50
62259;DHT22;48241;48.824;10.102;2023-04-30T15:33:05;17.60;51.70
62259;DHT22;48241;48.824;10.102;2023-04-30T15:35:31;17.60;52.40
62259;DHT22;48241;48.824;10.102;2023-04-30T15:37:56;17.30;52.00
62259;DHT22;48241;48.824;10.102;2023-04-30T15:40:22;17.30;52.50
62259;DHT22;48241;48.824;10.102;2023-04-30T15:42:48;17.90;51.60